createdAt,value
2023-01-18T00:01:46.254Z,69.11
2023-01-18T00:04:18.923Z,69.21
2023-01-18T00:06:51.504Z,69.18
2023-01-18T00:09:23.927Z,68.88
2023-01-18T00:11:56.273Z,69.10
2023-01-18T00:14:28.565Z,68.96
2023-01-18T00:17:01.043Z,68.95
2023-01-18T00:19:34.078Z,69.16
2023-01-18T00:22:06.452Z,69.07
2023-01-18T00:24:38.773Z,68.96
2023-01-18T00:27:12.835Z,68.90
2023-01-18T00:29:45.440Z,69.04
2023-01-18T00:32:17.812Z,68.90
2023-01-18T00:34:50.703Z,69.11
2023-01-18T00:37:25.145Z,68.87
2023-01-18T00:39:57.477Z,68.89
2023-01-18T00:42:47.667Z,69.03
2023-01-18T00:45:20.237Z,69.10
2023-01-18T00:47:52.711Z,68.96
2023-01-18T00:50:25.427Z,69.20
2023-01-18T00:53:00.471Z,68.84
2023-01-18T00:55:33.225Z,68.87
2023-01-18T00:58:05.591Z,68.81
2023-01-18T01:00:38.821Z,68.96
2023-01-18T01:03:13.197Z,68.88
2023-01-18T01:06:03.489Z,68.82
2023-01-18T01:08:35.918Z,68.90
2023-01-18T01:11:10.950Z,68.74
2023-01-18T01:14:01.266Z,68.84
2023-01-18T01:16:51.808Z,68.73
2023-01-18T01:19:41.854Z,68.93
2023-01-18T01:22:32.174Z,68.74
2023-01-18T01:25:22.109Z,68.89
2023-01-18T01:27:54.673Z,68.85
2023-01-18T01:30:27.047Z,68.97
2023-01-18T01:32:59.555Z,68.74
2023-01-18T01:35:32.012Z,68.50
2023-01-18T01:38:04.483Z,68.65
2023-01-18T01:40:36.885Z,68.84
2023-01-18T01:43:14.630Z,68.89
2023-01-18T01:45:47.074Z,68.80
2023-01-18T01:48:19.532Z,68.53
2023-01-18T01:50:52.135Z,68.80
2023-01-18T01:53:25.682Z,68.73
2023-01-18T01:55:58.061Z,68.62
2023-01-18T01:58:32.920Z,68.64
2023-01-18T02:01:05.378Z,68.56
2023-01-18T02:03:42.712Z,68.74
2023-01-18T02:06:31.689Z,68.59
2023-01-18T02:09:06.548Z,68.80
2023-01-18T02:11:39.281Z,68.92
2023-01-18T02:14:15.880Z,68.95
2023-01-18T02:17:05.913Z,68.88
2023-01-18T02:20:00.739Z,68.75
2023-01-18T02:23:00.336Z,68.72
2023-01-18T02:26:17.423Z,68.59
2023-01-18T02:28:57.807Z,68.97
2023-01-18T02:31:35.660Z,68.67
2023-01-18T02:34:16.637Z,68.43
2023-01-18T02:36:58.336Z,68.68
2023-01-18T02:39:39.516Z,68.47
2023-01-18T02:42:37.022Z,68.59
2023-01-18T02:45:34.982Z,68.47
2023-01-18T02:48:09.778Z,68.88
2023-01-18T02:50:42.513Z,68.75
2023-01-18T02:53:16.924Z,68.81
2023-01-18T02:55:55.823Z,69.03
2023-01-18T02:58:32.938Z,68.91
2023-01-18T03:01:10.703Z,68.90
2023-01-18T03:03:47.688Z,68.65
2023-01-18T03:06:22.574Z,68.89
2023-01-18T03:08:56.772Z,68.52
2023-01-18T03:11:39.630Z,68.71
2023-01-18T03:14:24.069Z,68.83
2023-01-18T03:17:01.888Z,68.71
2023-01-18T03:19:59.577Z,68.85
2023-01-18T03:22:54.654Z,68.77
2023-01-18T03:25:29.872Z,68.81
2023-01-18T03:28:21.912Z,68.88
2023-01-18T03:31:14.513Z,68.55
2023-01-18T03:33:53.017Z,68.90
2023-01-18T03:36:29.746Z,68.78
2023-01-18T03:39:06.040Z,68.61
2023-01-18T03:41:41.190Z,68.73
2023-01-18T03:44:13.916Z,68.82
2023-01-18T03:46:46.639Z,68.70
2023-01-18T03:49:19.727Z,68.97
2023-01-18T03:52:02.850Z,68.94
2023-01-18T03:54:41.144Z,68.64
2023-01-18T03:57:20.860Z,69.01
2023-01-18T03:59:53.744Z,68.67
2023-01-18T04:02:27.936Z,68.63
2023-01-18T04:05:03.727Z,68.85
2023-01-18T04:07:36.220Z,68.69
2023-01-18T04:10:10.009Z,68.88
2023-01-18T04:12:42.675Z,68.61
2023-01-18T04:15:15.521Z,68.71
2023-01-18T04:17:49.857Z,68.87
2023-01-18T04:20:22.457Z,68.93
2023-01-18T04:22:56.350Z,68.89
2023-01-18T04:25:29.022Z,68.81
2023-01-18T04:28:01.532Z,68.89
2023-01-18T04:30:33.843Z,69.04
2023-01-18T04:33:06.311Z,69.09
2023-01-18T04:35:38.667Z,69.04
2023-01-18T04:38:11.028Z,68.97
2023-01-18T04:40:43.549Z,68.76
2023-01-18T04:43:16.019Z,69.31
2023-01-18T04:45:55.903Z,68.96
2023-01-18T04:48:29.035Z,68.86
2023-01-18T04:51:01.405Z,69.06
2023-01-18T04:53:35.874Z,68.91
2023-01-18T04:56:08.918Z,68.93
2023-01-18T04:58:41.390Z,68.92
2023-01-18T05:01:14.637Z,69.32
2023-01-18T05:03:47.294Z,68.93
2023-01-18T05:06:21.160Z,68.96
2023-01-18T05:08:53.776Z,69.03
2023-01-18T05:11:26.125Z,68.97
2023-01-18T05:13:58.470Z,69.15
2023-01-18T05:16:31.107Z,69.39
2023-01-18T05:19:03.626Z,69.30
2023-01-18T05:21:35.955Z,69.17
2023-01-18T05:24:08.970Z,69.21
2023-01-18T05:26:41.334Z,69.08
2023-01-18T05:29:13.685Z,69.34
2023-01-18T05:31:46.294Z,69.06
2023-01-18T05:34:18.892Z,69.43
2023-01-18T05:36:51.341Z,69.21
2023-01-18T05:39:23.736Z,69.15
2023-01-18T05:41:56.898Z,69.22
2023-01-18T05:44:30.585Z,69.19
2023-01-18T05:47:02.980Z,69.17
2023-01-18T05:49:35.350Z,69.12
2023-01-18T05:52:08.468Z,69.18
2023-01-18T05:54:40.715Z,69.19
2023-01-18T05:57:13.092Z,69.19
2023-01-18T05:59:45.493Z,69.32
2023-01-18T06:02:18.467Z,68.85
2023-01-18T06:04:50.937Z,69.37
2023-01-18T06:07:23.297Z,69.31
2023-01-18T06:09:55.654Z,69.17
2023-01-18T06:12:28.096Z,69.39
2023-01-18T06:15:00.685Z,69.20
2023-01-18T06:17:34.376Z,69.49
2023-01-18T06:20:08.337Z,69.31
2023-01-18T06:22:40.941Z,69.17
2023-01-18T06:25:13.650Z,69.04
2023-01-18T06:27:45.948Z,69.27
2023-01-18T06:30:21.745Z,69.25
2023-01-18T06:32:54.502Z,69.26
2023-01-18T06:35:27.054Z,69.27
2023-01-18T06:37:59.402Z,69.39
2023-01-18T06:40:32.174Z,69.25
2023-01-18T06:43:04.562Z,69.35
2023-01-18T06:45:37.690Z,69.23
2023-01-18T06:48:10.381Z,69.32
2023-01-18T06:50:42.754Z,69.31
2023-01-18T06:53:15.207Z,69.25
2023-01-18T06:55:57.011Z,69.19
2023-01-18T06:58:31.186Z,69.31
2023-01-18T07:01:04.405Z,69.22
2023-01-18T07:03:37.177Z,69.19
2023-01-18T07:06:09.718Z,69.35
2023-01-18T07:08:42.239Z,69.28
2023-01-18T07:11:15.707Z,69.41
2023-01-18T07:13:49.616Z,69.48
2023-01-18T07:16:22.212Z,69.25
2023-01-18T07:18:54.575Z,69.18
2023-01-18T07:21:29.887Z,69.44
2023-01-18T07:24:02.659Z,69.36
2023-01-18T07:26:35.205Z,69.25
2023-01-18T07:29:09.288Z,69.09
2023-01-18T07:31:41.717Z,69.29
2023-01-18T07:34:14.544Z,69.71
2023-01-18T07:36:47.024Z,69.36
2023-01-18T07:39:19.369Z,69.07
2023-01-18T07:41:51.743Z,69.27
2023-01-18T07:44:24.092Z,69.50
2023-01-18T07:46:56.415Z,69.27
2023-01-18T07:49:28.840Z,69.42
2023-01-18T07:52:01.237Z,69.49
2023-01-18T07:54:33.566Z,69.57
2023-01-18T07:57:06.163Z,69.19
2023-01-18T07:59:40.107Z,69.43
2023-01-18T08:02:14.643Z,69.25
2023-01-18T08:04:51.229Z,69.52
2023-01-18T08:07:23.824Z,69.55
2023-01-18T08:09:57.959Z,69.62
2023-01-18T08:12:30.509Z,69.52
2023-01-18T08:15:02.857Z,69.49
2023-01-18T08:17:35.334Z,69.54
2023-01-18T08:20:10.650Z,69.37
2023-01-18T08:22:43.050Z,69.59
2023-01-18T08:25:17.471Z,69.92
2023-01-18T08:27:49.895Z,69.65
2023-01-18T08:30:23.724Z,69.68
2023-01-18T08:32:57.796Z,69.74
2023-01-18T08:35:31.963Z,69.84
2023-01-18T08:38:04.659Z,69.59
2023-01-18T08:40:37.267Z,69.48
2023-01-18T08:43:10.988Z,69.49
2023-01-18T08:45:43.494Z,69.66
2023-01-18T08:48:15.766Z,69.47
2023-01-18T08:50:50.141Z,69.30
2023-01-18T08:53:23.821Z,69.71
2023-01-18T08:55:56.263Z,69.51
2023-01-18T08:58:28.681Z,69.41
2023-01-18T09:01:01.119Z,69.82
2023-01-18T09:03:33.535Z,69.82
2023-01-18T09:06:12.499Z,69.77
2023-01-18T09:08:47.626Z,69.90
2023-01-18T09:11:20.671Z,69.61
2023-01-18T09:14:02.636Z,69.48
2023-01-18T09:16:35.194Z,69.70
2023-01-18T09:19:07.503Z,69.79
2023-01-18T09:21:40.388Z,69.64
2023-01-18T09:24:13.133Z,70.08
2023-01-18T09:26:46.506Z,69.94
2023-01-18T09:29:19.389Z,69.76
2023-01-18T09:31:54.060Z,69.96
2023-01-18T09:34:26.920Z,69.94
2023-01-18T09:36:59.322Z,69.99
2023-01-18T09:39:40.193Z,69.89
2023-01-18T09:42:23.470Z,70.04
2023-01-18T09:44:59.940Z,69.99
2023-01-18T09:47:36.866Z,70.03
2023-01-18T09:50:17.176Z,70.11
2023-01-18T09:52:58.376Z,70.15
2023-01-18T09:55:43.173Z,69.74
2023-01-18T09:58:33.109Z,70.09
2023-01-18T10:01:09.531Z,70.13
2023-01-18T10:03:53.368Z,69.93
2023-01-18T10:06:29.787Z,70.19
2023-01-18T10:09:06.407Z,70.10
2023-01-18T10:11:48.197Z,70.35
2023-01-18T10:14:42.956Z,70.60
2023-01-18T10:17:19.039Z,70.23
2023-01-18T10:19:51.973Z,70.37
2023-01-18T10:22:30.616Z,70.21
2023-01-18T10:25:07.625Z,70.36
2023-01-18T10:28:14.506Z,70.46
2023-01-18T10:31:01.830Z,70.23
2023-01-18T10:33:41.061Z,70.31
2023-01-18T10:36:18.306Z,70.54
2023-01-18T10:38:53.028Z,70.21
2023-01-18T10:41:29.677Z,70.39
2023-01-18T10:44:02.971Z,70.54
2023-01-18T10:46:35.345Z,70.73
2023-01-18T10:49:09.355Z,70.29
2023-01-18T10:51:41.793Z,70.42
2023-01-18T10:54:27.953Z,70.39
2023-01-18T10:57:09.171Z,70.61
2023-01-18T10:59:43.022Z,70.67
2023-01-18T11:02:23.661Z,70.54
2023-01-18T11:05:03.917Z,70.54
2023-01-18T11:07:36.799Z,70.43
2023-01-18T11:10:27.145Z,70.54
2023-01-18T11:12:59.846Z,70.76
2023-01-18T11:15:33.155Z,70.65
2023-01-18T11:18:10.366Z,70.33
2023-01-18T11:20:48.197Z,70.67
2023-01-18T11:23:25.575Z,70.62
2023-01-18T11:26:04.396Z,70.66
2023-01-18T11:28:45.792Z,70.55
2023-01-18T11:31:22.253Z,70.43
2023-01-18T11:33:56.982Z,70.62
2023-01-18T11:36:41.669Z,70.59
2023-01-18T11:39:32.146Z,70.73
2023-01-18T11:42:26.507Z,70.59
2023-01-18T11:45:20.228Z,70.60
2023-01-18T11:48:03.695Z,70.64
2023-01-18T11:50:43.531Z,70.53
2023-01-18T11:53:24.250Z,70.51
2023-01-18T11:56:06.147Z,70.37
2023-01-18T11:58:39.205Z,70.53
2023-01-18T12:01:27.911Z,70.64
2023-01-18T12:04:05.386Z,70.68
2023-01-18T12:06:49.302Z,70.68
2023-01-18T12:09:44.362Z,70.48
2023-01-18T12:12:38.060Z,70.83
2023-01-18T12:15:28.478Z,70.64
2023-01-18T12:18:19.498Z,70.54
2023-01-18T12:21:01.161Z,70.83
2023-01-18T12:23:50.695Z,70.78
2023-01-18T12:26:43.046Z,70.75
2023-01-18T12:29:52.744Z,70.48
2023-01-18T12:32:42.806Z,70.54
2023-01-18T12:35:29.054Z,70.54
2023-01-18T12:38:13.720Z,70.72
2023-01-18T12:40:57.897Z,70.62
2023-01-18T12:43:43.936Z,70.96
2023-01-18T12:46:21.157Z,70.59
2023-01-18T12:48:57.849Z,70.56
2023-01-18T12:51:35.378Z,70.62
2023-01-18T12:54:14.523Z,70.54
2023-01-18T12:56:50.482Z,70.92
2023-01-18T12:59:25.884Z,70.78
2023-01-18T13:02:05.422Z,70.66
2023-01-18T13:04:44.755Z,70.65
2023-01-18T13:07:21.884Z,70.93
2023-01-18T13:09:54.743Z,70.66
2023-01-18T13:12:28.782Z,70.67
2023-01-18T13:15:08.636Z,70.57
2023-01-18T13:17:46.994Z,70.80
2023-01-18T13:20:26.609Z,70.77
2023-01-18T13:23:10.093Z,70.82
2023-01-18T13:25:52.092Z,70.95
2023-01-18T13:28:27.563Z,70.93
2023-01-18T13:31:04.911Z,70.92
2023-01-18T13:33:40.872Z,71.14
2023-01-18T13:36:17.427Z,70.73
2023-01-18T13:38:55.588Z,70.85
2023-01-18T13:41:30.452Z,70.80
2023-01-18T13:44:26.974Z,70.81
2023-01-18T13:47:02.009Z,70.99
2023-01-18T13:49:38.607Z,71.03
2023-01-18T13:52:35.706Z,71.14
2023-01-18T13:55:31.319Z,70.97
2023-01-18T13:58:03.972Z,70.78
2023-01-18T14:00:47.351Z,70.95
2023-01-18T14:03:26.189Z,70.80
2023-01-18T14:05:59.867Z,70.85
2023-01-18T14:08:34.521Z,70.93
2023-01-18T14:11:09.514Z,70.98
2023-01-18T14:14:03.802Z,70.81
2023-01-18T14:16:39.793Z,71.13
2023-01-18T14:19:18.299Z,70.94
2023-01-18T14:22:15.153Z,70.83
2023-01-18T14:25:05.641Z,71.00
2023-01-18T14:27:43.199Z,70.93
2023-01-18T14:30:25.907Z,70.99
2023-01-18T14:33:02.943Z,70.95
2023-01-18T14:35:35.491Z,70.98
2023-01-18T14:38:18.577Z,70.99
2023-01-18T14:40:53.888Z,70.95
2023-01-18T14:43:30.827Z,71.16
2023-01-18T14:46:06.776Z,71.11
2023-01-18T14:48:51.616Z,71.35
2023-01-18T14:51:26.723Z,71.11
2023-01-18T14:53:59.247Z,71.13
2023-01-18T14:56:34.949Z,71.19
2023-01-18T14:59:22.024Z,71.24
2023-01-18T15:01:59.590Z,71.44
2023-01-18T15:04:36.237Z,71.17
2023-01-18T15:07:11.298Z,71.30
2023-01-18T15:09:45.819Z,71.25
2023-01-18T15:12:23.083Z,71.08
2023-01-18T15:14:55.697Z,71.19
2023-01-18T15:17:29.131Z,71.49
2023-01-18T15:20:07.801Z,71.17
2023-01-18T15:22:42.222Z,71.25
2023-01-18T15:25:24.483Z,71.08
2023-01-18T15:27:59.804Z,71.06
2023-01-18T15:30:34.370Z,71.01
2023-01-18T15:33:07.127Z,71.30
2023-01-18T15:35:39.857Z,71.08
2023-01-18T15:38:13.462Z,71.02
2023-01-18T15:40:57.511Z,71.26
2023-01-18T15:43:37.026Z,71.27
2023-01-18T15:46:14.127Z,71.22
2023-01-18T15:48:51.672Z,71.21
2023-01-18T15:51:44.770Z,71.29
2023-01-18T15:54:22.459Z,71.27
2023-01-18T15:56:57.186Z,71.24
2023-01-18T15:59:30.409Z,71.42
2023-01-18T16:02:20.220Z,71.11
2023-01-18T16:05:11.271Z,71.29
2023-01-18T16:07:43.668Z,71.60
2023-01-18T16:10:30.444Z,71.54
2023-01-18T16:13:30.710Z,71.29
2023-01-18T16:16:23.110Z,71.45
2023-01-18T16:19:07.179Z,71.32
2023-01-18T16:21:48.734Z,71.35
2023-01-18T16:24:30.530Z,71.30
2023-01-18T16:27:11.271Z,71.40
2023-01-18T16:29:46.631Z,71.43
2023-01-18T16:32:29.262Z,71.53
2023-01-18T16:35:11.184Z,71.29
2023-01-18T16:37:45.324Z,71.62
2023-01-18T16:40:21.226Z,71.68
2023-01-18T16:43:02.084Z,71.48
2023-01-18T16:45:37.672Z,71.55
2023-01-18T16:48:18.081Z,71.74
2023-01-18T16:50:51.680Z,71.43
2023-01-18T16:53:24.443Z,71.76
2023-01-18T16:55:57.451Z,71.49
2023-01-18T16:58:29.908Z,71.66
2023-01-18T17:01:06.967Z,71.73
2023-01-18T17:03:40.426Z,71.60
2023-01-18T17:06:17.905Z,71.60
2023-01-18T17:08:50.844Z,71.53
2023-01-18T17:11:23.339Z,71.57
2023-01-18T17:13:55.787Z,71.67
2023-01-18T17:16:28.158Z,71.62
2023-01-18T17:19:00.614Z,71.83
2023-01-18T17:21:33.085Z,71.79
2023-01-18T17:24:06.363Z,71.85
2023-01-18T17:26:39.367Z,71.87
2023-01-18T17:29:17.994Z,71.83
2023-01-18T17:31:52.990Z,72.07
2023-01-18T17:34:29.252Z,71.91
2023-01-18T17:37:03.307Z,71.75
2023-01-18T17:39:44.109Z,71.70
2023-01-18T17:42:30.168Z,71.84
2023-01-18T17:45:06.793Z,71.57
2023-01-18T17:47:40.106Z,72.02
2023-01-18T17:50:21.727Z,71.87
2023-01-18T17:52:55.401Z,71.64
2023-01-18T17:55:34.630Z,71.71
2023-01-18T17:58:07.600Z,71.99
2023-01-18T18:00:40.070Z,71.92
2023-01-18T18:03:13.411Z,71.66
2023-01-18T18:05:46.080Z,71.85
2023-01-18T18:08:19.080Z,71.87
2023-01-18T18:10:52.102Z,71.91
2023-01-18T18:13:25.114Z,71.79
2023-01-18T18:15:57.930Z,71.84
2023-01-18T18:18:30.588Z,71.82
2023-01-18T18:21:05.523Z,71.83
2023-01-18T18:23:38.442Z,72.17
2023-01-18T18:26:10.892Z,71.91
2023-01-18T18:28:43.547Z,71.88
2023-01-18T18:31:17.555Z,71.89
2023-01-18T18:33:54.925Z,71.90
2023-01-18T18:36:28.175Z,71.96
2023-01-18T18:39:03.413Z,72.21
2023-01-18T18:41:36.116Z,71.83
2023-01-18T18:44:08.384Z,72.08
2023-01-18T18:46:41.314Z,71.95
2023-01-18T18:49:13.823Z,72.34
2023-01-18T18:51:46.236Z,72.07
2023-01-18T18:54:18.796Z,72.26
2023-01-18T18:56:51.425Z,72.31
2023-01-18T18:59:23.979Z,72.10
2023-01-18T19:01:57.878Z,71.95
2023-01-18T19:04:30.593Z,72.10
2023-01-18T19:07:03.272Z,72.00
2023-01-18T19:09:36.008Z,72.23
2023-01-18T19:12:08.854Z,71.89
2023-01-18T19:14:41.136Z,71.95
2023-01-18T19:17:18.570Z,72.08
2023-01-18T19:19:54.385Z,72.09
2023-01-18T19:22:26.855Z,72.03
2023-01-18T19:24:59.846Z,72.29
2023-01-18T19:27:32.191Z,72.35
2023-01-18T19:30:10.718Z,72.28
2023-01-18T19:32:43.236Z,72.35
2023-01-18T19:35:15.660Z,72.22
2023-01-18T19:37:48.607Z,72.07
2023-01-18T19:40:22.046Z,72.68
2023-01-18T19:42:56.164Z,72.30
2023-01-18T19:45:29.557Z,72.45
2023-01-18T19:48:03.001Z,72.12
2023-01-18T19:50:35.530Z,72.17
2023-01-18T19:53:07.995Z,72.27
2023-01-18T19:55:41.759Z,72.22
2023-01-18T19:58:14.490Z,72.10
2023-01-18T20:00:46.999Z,72.47
2023-01-18T20:03:19.731Z,72.41
2023-01-18T20:05:52.223Z,72.48
2023-01-18T20:08:24.699Z,72.46
2023-01-18T20:10:57.121Z,72.56
2023-01-18T20:13:30.111Z,72.56
2023-01-18T20:16:02.596Z,72.23
2023-01-18T20:18:36.370Z,72.24
2023-01-18T20:21:10.441Z,72.52
2023-01-18T20:23:44.092Z,72.57
2023-01-18T20:26:31.057Z,72.31
2023-01-18T20:29:08.106Z,72.59
2023-01-18T20:31:44.613Z,72.41
2023-01-18T20:34:21.129Z,72.54
2023-01-18T20:36:53.597Z,72.41
2023-01-18T20:39:26.157Z,72.53
2023-01-18T20:41:58.833Z,72.94
2023-01-18T20:44:31.254Z,72.37
2023-01-18T20:47:03.959Z,72.58
2023-01-18T20:49:38.793Z,72.56
2023-01-18T20:52:11.737Z,72.64
2023-01-18T20:54:44.072Z,72.47
2023-01-18T20:57:17.853Z,72.35
2023-01-18T20:59:50.260Z,72.16
2023-01-18T21:02:22.883Z,72.33
2023-01-18T21:04:55.433Z,72.53
2023-01-18T21:07:29.780Z,72.44
2023-01-18T21:10:02.278Z,72.58
2023-01-18T21:12:34.606Z,72.43
2023-01-18T21:15:09.165Z,72.72
2023-01-18T21:17:41.551Z,72.84
2023-01-18T21:20:15.989Z,72.58
2023-01-18T21:22:48.297Z,72.88
2023-01-18T21:25:20.793Z,72.68
2023-01-18T21:27:53.577Z,72.61
2023-01-18T21:30:29.953Z,72.53
2023-01-18T21:33:04.692Z,72.79
2023-01-18T21:35:37.144Z,72.78
2023-01-18T21:38:09.766Z,72.58
2023-01-18T21:40:42.352Z,72.69
2023-01-18T21:43:38.057Z,72.67
2023-01-18T21:46:12.531Z,72.63
2023-01-18T21:48:44.999Z,72.76
2023-01-18T21:51:43.588Z,72.48
2023-01-18T21:54:16.084Z,72.52
2023-01-18T21:56:49.210Z,72.81
2023-01-18T21:59:21.623Z,72.54
2023-01-18T22:01:54.101Z,72.67
2023-01-18T22:04:44.391Z,72.63
2023-01-18T22:07:17.682Z,72.83
2023-01-18T22:10:03.412Z,72.84
2023-01-18T22:12:39.143Z,72.64
2023-01-18T22:15:14.032Z,73.04
2023-01-18T22:17:46.330Z,73.04
2023-01-18T22:20:19.655Z,72.82
2023-01-18T22:22:52.070Z,73.04
2023-01-18T22:25:24.420Z,72.97
2023-01-18T22:27:56.786Z,73.03
2023-01-18T22:30:29.372Z,72.90
2023-01-18T22:33:01.716Z,72.84
2023-01-18T22:35:34.535Z,72.89
2023-01-18T22:38:07.238Z,72.72
2023-01-18T22:40:39.762Z,72.86
2023-01-18T22:43:12.239Z,72.80
2023-01-18T22:45:44.686Z,72.97
2023-01-18T22:48:16.963Z,73.30
2023-01-18T22:50:55.701Z,73.30
2023-01-18T22:53:31.457Z,73.00
2023-01-18T22:56:06.319Z,73.14
2023-01-18T22:58:39.192Z,73.04
2023-01-18T23:01:19.442Z,72.97
2023-01-18T23:03:52.855Z,72.96
2023-01-18T23:06:26.358Z,72.94
2023-01-18T23:08:59.053Z,72.99
2023-01-18T23:11:32.938Z,73.18
2023-01-18T23:14:23.990Z,73.20
2023-01-18T23:17:14.196Z,73.02
2023-01-18T23:19:46.699Z,73.08
2023-01-18T23:22:19.088Z,73.29
2023-01-18T23:24:51.590Z,73.18
2023-01-18T23:27:24.294Z,73.34
2023-01-18T23:29:58.898Z,73.40
2023-01-18T23:32:31.736Z,73.38
2023-01-18T23:35:05.242Z,73.33
2023-01-18T23:37:37.601Z,73.26
2023-01-18T23:40:31.325Z,73.35
2023-01-18T23:43:21.259Z,73.54
2023-01-18T23:46:11.646Z,73.51
2023-01-18T23:49:01.450Z,73.44
2023-01-18T23:51:51.414Z,73.44
2023-01-18T23:54:23.823Z,73.39
2023-01-18T23:56:56.168Z,73.25
2023-01-18T23:59:28.518Z,73.56
